Weather observations for the past three days for
Spartanburg Memorial
Metric (Imperial)
Date Time (edt) Wind (kph) Vis. (km) Weather Sky Cond. Temperature (ºC) Relative Humidity Wind Chill (°C) Heat Index (°C) Pressure Precipitation (cm)
Air Dwpt 6 hour altimeter (cm) sea level (mb) 1 hr 3 hr 6 hr
Max. Min.
05 02:55 Calm 16.09 Fair CLR 13 6 63% 76.15 0.0
05 02:35 SW 6 16.09 Fair CLR 13 6 63% 76.15 0.0
05 02:15 SW 7 16.09 Fair CLR 14 6 59% 76.15 0.0
05 01:55 S 6 16.09 Fair CLR 14 5 55% 76.15 0.0
05 01:35 Calm 16.09 Fair CLR 14 5 55% 76.17 0.0
05 01:15 Calm 16.09 Fair CLR 13 6 63% 76.17 0.0
05 00:55 SW 6 16.09 Fair CLR 13 5 59% 76.17 0.0
05 00:35 Calm 16.09 Fair CLR 13 5 59% 76.17 0.0
05 00:15 Calm 16.09 Fair CLR 15 5 51% 76.17 0.0
04 23:55 Calm 16.09 Fair CLR 15 5 51% 76.17 0.0
04 23:35 Calm 16.09 Fair CLR 15 5 51% 76.2 0.0
04 23:15 Calm 16.09 Fair CLR 17 5 45% 76.2 0.0
04 22:55 Calm 16.09 Fair CLR 17 4 42% 76.2 0.0
04 22:35 S 6 16.09 Fair CLR 17 5 45% 76.17 0.0
04 22:15 S 6 16.09 Fair CLR 16 5 48% 76.17 0.0
04 21:55 Calm 16.09 Fair CLR 16 5 48% 76.15 0.0
04 21:35 Calm 16.09 Fair CLR 17 5 45% 76.15 0.0
04 21:15 Calm 16.09 Fair CLR 18 4 40% 76.12 0.0
04 20:55 Calm 16.09 Fair CLR 20 3 33% 76.12 0.0
04 20:35 SW 6 16.09 Fair CLR 20 3 33% 76.1 0.0
04 20:15 SW 6 16.09 Fair CLR 21 2 29% 76.1 0.0
04 19:55 SW 9 16.09 Fair CLR 22 2 27% 76.07 0.0
04 19:35 SW 11 16.09 Fair CLR 23 2 25% 76.07 0.0
04 19:15 SW 9 16.09 Fair CLR 23 3 27% 76.05 0.0
04 18:50 SW 11 16.09 Fair CLR 24 2 24% 25 76.05 0.0
04 18:35 S 7 16.09 Fair CLR 24 2 24% 25 76.07 0.0
04 18:15 S 6 16.09 Fair CLR 24 2 24% 25 76.07 0.0
04 17:55 S 9 16.09 Fair CLR 25 1 21% 25 76.07 0.0
04 17:35 SW 11 16.09 Fair CLR 25 1 21% 25 76.07 0.0
04 17:15 SW 7 16.09 Fair CLR 25 1 21% 25 76.07 0.0
04 16:55 S 9 16.09 Fair CLR 25 0 19% 25 76.07 0.0
04 16:35 S 9 16.09 Fair CLR 25 0 19% 25 76.1 0.0
04 16:15 S 9 16.09 Fair CLR 25 0 19% 25 76.1 0.0
04 15:55 S 7 16.09 Fair CLR 25 0 19% 25 76.12 0.0
04 15:35 S 9 16.09 Fair CLR 25 0 19% 25 76.12 0.0
04 15:15 SW 6 16.09 Fair CLR 25 0 19% 25 76.15 0.0
04 14:55 SW 9 16.09 Fair CLR 24 0 21% 25 76.17 0.0
04 14:35 SE 11 16.09 Fair CLR 24 1 22% 25 76.2 0.0
04 14:15 Calm 16.09 Fair CLR 23 1 23% 76.2 0.0
04 13:55 SE 6 16.09 Fair CLR 23 1 23% 76.23 0.0
04 13:35 Calm 16.09 Fair CLR 23 2 25% 76.23 0.0
04 13:15 W 6 16.09 Fair CLR 22 2 27% 76.23 0.0
04 12:55 SW 9 16.09 Fair CLR 22 3 29% 76.25 0.0
04 12:35 E 7 16.09 Fair CLR 21 2 29% 76.28 0.0
04 12:15 Calm 16.09 Fair CLR 21 1 27% 76.3 0.0
04 11:55 Calm 16.09 Fair CLR 20 1 28% 76.33 0.0
04 11:35 Calm 16.09 Fair CLR 20 2 30% 76.33 0.0
04 11:15 Calm 16.09 Fair CLR 19 2 32% 76.35 0.0
04 10:55 Calm 16.09 Fair CLR 18 2 34% 76.35 0.0
04 10:35 Calm 16.09 Fair CLR 18 3 37% 76.35 0.0
04 10:10 Calm 16.09 Fair CLR 17 3 39% 76.35 0.0
04 09:55 Calm 16.09 Fair CLR 17 6 49% 76.35 0.0
04 09:35 Calm 16.09 Fair CLR 15 6 55% 76.35 0.0
04 09:15 Calm 16.09 Fair CLR 14 6 59% 76.33 0.0
04 08:55 Calm 16.09 Fair CLR 13 6 63% 76.33 0.0
04 08:35 Calm 16.09 Fair CLR 12 5 63% 76.3 0.0
04 08:15 Calm 16.09 Fair CLR 11 6 72% 76.33 0.0
04 07:55 Calm 16.09 Fair CLR 10 6 76% 76.3 0.0
04 07:35 Calm 16.09 Fair CLR 8 6 87% 76.3 0.0
04 07:15 Calm 16.09 Fair CLR 6 5 93% 76.3 0.0
04 06:55 N 6 16.09 Fair CLR 5 4 93% 76.3 0.0
04 06:35 Calm 16.09 Fair CLR 5 3 87% 76.28 0.0
04 06:15 Calm 16.09 Fair CLR 6 4 87% 76.28 0.0
04 05:55 Calm 16.09 Fair CLR 6 4 87% 76.3 0.0
04 05:15 Calm 16.09 Fair CLR 7 4 81% 76.3 0.0
04 04:55 Calm 16.09 Fair CLR 7 4 81% 76.3 0.0
04 04:35 Calm 16.09 Fair CLR 7 4 81% 76.28 0.0
04 04:15 Calm 16.09 Fair CLR 7 4 81% 76.28 0.0
04 03:55 Calm 16.09 Fair CLR 7 4 81% 76.25 0.0
04 03:35 Calm 16.09 Fair CLR 8 5 82% 76.25 0.0
04 03:15 Calm 16.09 Fair CLR 8 5 82% 76.25 0.0
04 02:55 Calm 16.09 Fair CLR 8 5 82% 76.28 0.0
04 02:35 Calm 16.09 Fair CLR 8 5 82% 76.28 0.0
04 02:15 Calm 16.09 Fair CLR 9 5 76% 76.28 0.0
04 01:55 Calm 16.09 Fair CLR 10 4 67% 76.3 0.0
04 01:35 SW 7 16.09 Fair CLR 10 4 67% 9 76.3 0.0
04 01:15 Calm 16.09 Fair CLR 12 4 58% 76.28 0.0
04 00:55 Calm 16.09 Fair CLR 12 4 58% 76.28 0.0
04 00:35 Calm 16.09 Fair CLR 11 4 62% 76.28 0.0
04 00:15 Calm 16.09 Fair CLR 11 5 67% 76.3 0.0
03 23:55 Calm 16.09 Fair CLR 11 5 67% 76.33 0.0
03 23:35 Calm 16.09 Fair CLR 11 5 67% 76.33 0.0
03 23:15 Calm 16.09 Fair CLR 12 5 63% 76.3 0.0
03 22:55 Calm 16.09 Fair CLR 12 5 63% 76.3 0.0
03 22:35 Calm 16.09 Fair CLR 12 4 58% 76.3 0.0
03 22:15 Calm 16.09 Fair CLR 13 4 55% 76.28 0.0
03 21:55 Calm 16.09 Fair CLR 14 4 51% 76.25 0.0
03 21:35 Calm 16.09 Fair CLR 15 3 45% 76.25 0.0
03 21:15 Calm 16.09 Fair CLR 15 3 45% 76.25 0.0
03 20:55 Calm 16.09 Fair CLR 16 3 42% 76.23 0.0
03 20:35 Calm 16.09 Fair CLR 16 2 39% 76.23 0.0
03 20:15 Calm 16.09 Fair CLR 17 2 37% 76.2 0.0
03 19:55 Calm 16.09 Fair CLR 18 1 32% 76.2 0.0
03 19:35 SW 7 16.09 Fair CLR 18 1 32% 76.2 0.0
03 19:15 SW 6 16.09 Fair CLR 19 1 30% 76.2 0.0
03 18:55 W 7 16.09 Fair CLR 20 0 26% 76.2 0.0
03 18:35 W 11 16.09 Fair CLR 20 1 28% 76.23 0.0
03 18:15 SW 9 16.09 Fair CLR 20 1 28% 76.2 0.0
03 17:55 SW 7 16.09 Fair CLR 20 1 28% 76.23 0.0
03 17:35 W 7 16.09 Fair CLR 20 0 26% 76.23 0.0
03 17:15 SW 9 16.09 Fair CLR 20 1 28% 76.25 0.0
03 16:55 SW 13 16.09 Fair CLR 20 1 28% 76.25 0.0
03 16:35 W 19 G 30 16.09 Fair CLR 20 1 28% 76.25 0.0
03 16:15 SW 13 16.09 Fair CLR 20 1 28% 76.3 0.0
03 15:55 W 13 16.09 Fair CLR 20 1 28% 76.33 0.0
03 15:35 W 15 16.09 Fair CLR 20 1 28% 76.33 0.0
03 15:15 SW 15 16.09 Fair CLR 20 1 28% 76.38 0.0
03 14:35 SW 15 16.09 Fair CLR 18 0 30% 76.4 0.0
03 14:15 Calm 16.09 Fair CLR 18 0 30% 76.4 0.0
03 13:55 SW 6 16.09 Fair CLR 18 0 30% 76.43 0.0
03 13:35 SW 7 16.09 Fair CLR 17 0 32% 76.45 0.0
03 13:15 NE 6 16.09 Fair CLR 17 0 32% 76.45 0.0
03 12:55 W 6 G 26 16.09 Fair CLR 17 0 32% 76.5 0.0
03 12:35 SW 13 16.09 Fair CLR 17 1 34% 76.5 0.0
03 12:15 W 6 16.09 Fair CLR 16 0 34% 76.53 0.0
03 11:55 W 11 16.09 Fair CLR 16 0 34% 76.53 0.0
03 11:35 SE 6 16.09 Fair CLR 15 1 39% 76.56 0.0
03 11:15 N 7 16.09 Fair CLR 15 0 36% 76.56 0.0
03 10:55 N 9 16.09 Fair CLR 15 0 36% 76.58 0.0
03 10:35 N 6 16.09 Fair CLR 14 0 39% 76.58 0.0
03 10:15 N 7 16.09 Fair CLR 14 0 39% 76.56 0.0
03 09:55 N 9 16.09 Fair CLR 13 0 41% 76.53 0.0
03 09:35 NE 7 16.09 Fair CLR 12 0 44% 76.53 0.0
03 09:15 NE 6 16.09 Fair CLR 12 0 44% 76.53 0.0
03 08:35 N 7 16.09 Fair CLR 10 2 58% 9 76.53 0.0
03 08:15 NE 6 16.09 Fair CLR 10 3 62% 76.53 0.0
03 07:55 Calm 16.09 Fair CLR 8 3 71% 76.5 0.0
03 07:35 Calm 16.09 Fair CLR 7 3 76% 76.5 0.0
03 07:15 Calm 16.09 Fair CLR 5 2 81% 76.48 0.0
03 06:55 Calm 16.09 Fair CLR 5 2 81% 76.45 0.0
03 06:35 Calm 16.09 Fair CLR 5 2 81% 76.43 0.0
03 06:15 Calm 16.09 Fair CLR 5 1 76% 76.4 0.0
03 05:55 Calm 16.09 Fair CLR 5 2 81% 76.38 0.0
03 05:35 Calm 16.09 Fair CLR 6 1 71% 76.38 0.0
03 05:15 Calm 16.09 Fair CLR 7 1 66% 76.38 0.0
03 04:55 Calm 16.09 Fair CLR 8 0 57% 76.35 0.0
03 04:35 N 9 16.09 Fair CLR 8 0 57% 7 76.33 0.0
03 04:15 N 9 16.09 Fair CLR 8 0 57% 7 76.33 0.0
03 03:55 N 11 16.09 Fair CLR 9 0 54% 8 76.33 0.0
03 03:35 N 11 16.09 Fair CLR 9 0 54% 8 76.3 0.0
03 03:15 N 11 16.09 Fair CLR 10 0 50% 9 76.28 0.0
03 02:55 N 13 16.09 Fair CLR 9 0 54% 7 76.28 0.0
03 02:35 N 11 16.09 Fair CLR 8 1 62% 6 76.25 0.0
03 02:15 NW 6 16.09 Fair CLR 6 3 81% 76.25 0.0
03 01:55 Calm 16.09 Fair CLR 7 3 76% 76.25 0.0
03 01:35 N 6 16.09 Fair CLR 7 3 76% 76.25 0.0
03 01:15 Calm 16.09 Fair CLR 7 3 76% 76.25 0.0
03 00:55 Calm 16.09 Fair CLR 7 3 76% 76.25 0.0
03 00:35 Calm 16.09 Fair CLR 8 3 71% 76.25 0.0
03 00:15 Calm 16.09 Fair CLR 8 4 76% 76.25 0.0
02 23:55 Calm 16.09 Fair CLR 10 3 62% 76.23 0.0
02 23:35 Calm 16.09 Partly Cloudy SCT100 10 3 62% 76.2 0.0
02 23:15 Calm 16.09 Mostly Cloudy BKN100 12 1 47% 76.2 0.0
02 22:55 NE 6 16.09 Mostly Cloudy BKN100 13 1 44% 76.2 0.0
02 22:35 N 7 16.09 Mostly Cloudy BKN100 13 1 44% 76.17 0.0
02 22:15 Calm 16.09 Overcast OVC090 13 5 59% 76.15 0.0
02 21:55 NE 6 16.09 Overcast OVC090 14 3 48% 76.12 0.0
02 21:35 NE 7 16.09 Overcast OVC090 14 6 59% 76.1 0.0
02 21:15 N 7 16.09 Overcast OVC090 12 7 72% 76.05 0.0
02 20:55 Calm 16.09 Mostly Cloudy BKN090 13 7 67% 76.05 0.0
02 20:35 N 6 16.09 Overcast SCT075 OVC090 13 8 72% 76.02 0.0
02 20:15 Calm 16.09 Overcast SCT075 OVC085 15 7 59% 75.97 0.0
02 19:35 Calm 16.09 Partly Cloudy SCT048 SCT055 SCT090 15 7 59% 75.95 0.0
02 19:15 Calm 16.09 Mostly Cloudy BKN075 16 7 55% 75.9 0.0
02 18:55 Calm 16.09 Mostly Cloudy BKN075 16 6 52% 75.9 0.0
02 18:35 Calm 16.09 Fair CLR 17 6 49% 75.9 0.0
02 18:15 Calm 16.09 Partly Cloudy SCT065 SCT080 17 6 49% 75.87 0.0
02 17:55 SE 6 16.09 Fair CLR 17 6 49% 75.87 0.0
02 17:35 Calm 16.09 Partly Cloudy SCT085 17 6 49% 75.87 0.0
02 17:15 Calm 16.09 Overcast SCT055 OVC085 16 6 52% 75.87 0.0
02 16:35 SE 7 16.09 Mostly Cloudy SCT041 SCT048 BKN055 17 6 49% 75.87 0.0
02 16:15 SE 7 16.09 Overcast SCT039 OVC055 16 6 52% 75.87 0.0
02 15:55 E 7 16.09 Overcast OVC049 16 6 52% 75.9 0.0
02 15:35 NE 7 16.09 Overcast SCT037 OVC047 16 6 52% 75.9 0.0
02 15:15 NE 9 16.09 Overcast BKN037 BKN045 OVC055 16 6 52% 75.92 0.0
02 14:35 N 11 16.09 Overcast SCT036 BKN050 OVC065 16 6 52% 75.95 0.0
02 14:15 N 6 16.09 Mostly Cloudy SCT032 BKN050 16 6 52% 75.97 0.0
02 13:55 NE 13 16.09 Mostly Cloudy SCT032 BKN050 16 6 52% 75.97 0.0
02 13:35 E 9 16.09 Overcast OVC050 16 6 52% 76 0.0
02 13:15 NE 7 16.09 Overcast OVC048 14 5 55% 76.02 0.0
02 12:55 NE 13 16.09 Overcast OVC046 15 6 55% 76.02 0.0
02 12:35 NE 11 16.09 Overcast OVC046 14 6 59% 76.05 0.0
02 12:15 E 11 16.09 Overcast OVC046 13 6 63% 76.05 0.0
02 11:55 E 11 16.09 Overcast OVC044 13 6 63% 76.07 0.0
02 11:35 NE 13 16.09 Overcast OVC042 13 6 63% 76.07 0.0
02 11:15 NE 9 G 26 16.09 Overcast OVC042 13 6 63% 76.07 0.0
02 10:55 NE 15 16.09 Overcast OVC040 13 6 63% 76.05 0.0
02 10:35 E 9 16.09 Overcast OVC036 13 8 72% 76.07 0.0
02 10:15 E 7 16.09 Overcast OVC036 13 8 72% 76.05 0.0
02 09:55 NE 9 16.09 Mostly Cloudy BKN034 BKN050 13 8 72% 76 0.0
02 09:35 E 13 16.09 Mostly Cloudy SCT024 SCT034 BKN050 13 10 82% 76 0.0
02 08:55 NE 11 16.09 Mostly Cloudy BKN010 BKN017 BKN050 13 11 88% 76.02 0.0
02 08:35 NE 13 16.09 Mostly Cloudy SCT010 BKN110 13 11 88% 76 0.0
02 07:55 NE 9 16.09 Mostly Cloudy BKN100 BKN120 13 11 88% 75.92 0.0
02 07:35 N 7 16.09 Light Rain SCT040 SCT060 BKN085 12 11 94% 75.92 0.0
02 07:15 N 11 16.09 Overcast SCT085 OVC100 13 11 88% 75.9 0.0
02 06:55 N 7 16.09 Overcast OVC110 12 12 100% 75.9 0.0
02 06:35 N 6 16.09 Mostly Cloudy BKN110 12 11 94% 75.87 0.0
02 06:15 Calm 16.09 Overcast OVC110 12 11 94% 75.84 0.0
02 05:55 Calm 16.09 Mostly Cloudy BKN110 12 11 94% 75.87 0.0 0.03
02 05:35 Calm 16.09 Partly Cloudy SCT050 SCT110 13 12 94% 75.87 0.0 0.03
02 05:15 Calm 16.09 Light Rain SCT055 BKN070 13 12 94% 75.9 0.0 0.03
02 04:55 Calm 16.09 Light Rain OVC070 13 11 88% 75.95 0.0
02 04:35 Calm 16.09 Rain OVC070 13 11 88% 75.95 0.0
02 04:15 Calm 16.09 Drizzle OVC070 13 11 88% 75.95 0.0
02 03:55 Calm 16.09 Drizzle OVC080 13 11 88% 75.92 0.0
02 03:35 Calm 16.09 Rain SCT055 OVC080 13 11 88% 75.95 0.0
02 03:15 Calm 16.09 Overcast SCT055 BKN080 OVC090 13 11 88% 75.92 0.0
Date Time (edt) Wind (kph) Vis. (km) Weather Sky Cond. Air Dwpt Max. Min. Relative Humidity Wind Chill (°C) Heat Index (°C) altimeter (cm) sea level (mb) 1 hr 3 hr 6 hr
6 hour
Temperature (ºC) Pressure Precipitation (cm)